Time;durP1;ratioP1;P1;durP2;ratioP2;P2;SDS_P1;SDS_P2;PMS_P1;PMS_P2;Temp;Humidity;BMP_temperature;BMP_pressure;BME280_temperature;BME280_humidity;BME280_pressure;Samples;Min_cycle;Max_cycle;Signal;HPM_P1;HPM_P2
2023/09/08 00:00:15;;;;;;;3.80;3.60;;;31.40;47.80;;;;;;5037912;28;20503;-78
2023/09/08 00:02:42;;;;;;;4.33;4.03;;;31.40;47.80;;;;;;5038225;28;20517;-80
2023/09/08 00:05:11;;;;;;;3.50;3.40;;;31.40;47.90;;;;;;5038396;28;20447;-80
2023/09/08 00:07:39;;;;;;;4.10;3.90;;;31.40;48.50;;;;;;5038820;28;20509;-80
2023/09/08 00:10:08;;;;;;;3.73;3.63;;;31.40;47.80;;;;;;5036744;28;20480;-80
2023/09/08 00:12:36;;;;;;;5.37;4.33;;;31.30;47.80;;;;;;5038883;28;20438;-79
2023/09/08 00:15:07;;;;;;;4.10;3.90;;;31.30;48.00;;;;;;5036771;28;20453;-79
2023/09/08 00:17:36;;;;;;;3.50;3.30;;;31.30;48.00;;;;;;5035097;28;20475;-79
2023/09/08 00:20:08;;;;;;;3.60;3.43;;;31.20;47.90;;;;;;5033400;28;20486;-79
2023/09/08 00:22:36;;;;;;;4.50;4.30;;;31.20;47.90;;;;;;5033581;28;20426;-81
2023/09/08 00:25:05;;;;;;;4.33;4.13;;;31.20;48.10;;;;;;5033394;28;20422;-79
2023/09/08 00:27:33;;;;;;;3.90;3.70;;;31.10;48.00;;;;;;5035083;28;20448;-77
2023/09/08 00:30:02;;;;;;;4.27;3.97;;;31.10;48.00;;;;;;5038339;28;20474;-79
2023/09/08 00:32:31;;;;;;;4.13;3.83;;;31.10;48.10;;;;;;5040257;28;20447;-77
2023/09/08 00:35:00;;;;;;;3.80;3.60;;;31.10;48.20;;;;;;5036529;28;20823;-78
2023/09/08 00:37:28;;;;;;;3.93;3.73;;;31.00;48.20;;;;;;5035403;28;20422;-78
2023/09/08 00:39:56;;;;;;;3.70;3.50;;;31.00;48.30;;;;;;5033034;28;20473;-79
2023/09/08 00:42:25;;;;;;;4.00;3.80;;;31.00;48.30;;;;;;5033076;28;20460;-79
2023/09/08 00:44:52;;;;;;;4.93;4.53;;;31.00;48.30;;;;;;5032959;28;20440;-77
2023/09/08 00:47:21;;;;;;;4.10;3.90;;;31.00;48.30;;;;;;5033706;28;20478;-76
2023/09/08 00:49:51;;;;;;;3.87;3.67;;;30.90;48.10;;;;;;5032970;28;20445;-78
2023/09/08 00:52:19;;;;;;;4.20;4.00;;;30.90;48.20;;;;;;5032871;28;20523;-80
2023/09/08 00:54:47;;;;;;;4.30;4.10;;;30.80;48.20;;;;;;5036020;28;20413;-77
2023/09/08 00:57:15;;;;;;;4.50;4.20;;;30.80;48.40;;;;;;5037089;28;20502;-80
2023/09/08 00:59:43;;;;;;;3.60;3.50;;;30.80;48.30;;;;;;5033332;28;20566;-79
2023/09/08 01:02:11;;;;;;;3.90;3.70;;;30.80;48.40;;;;;;5033848;28;20531;-76
2023/09/08 01:04:41;;;;;;;4.47;4.17;;;30.70;48.40;;;;;;5034297;28;20418;-79
2023/09/08 01:07:12;;;;;;;3.90;3.70;;;30.70;48.50;;;;;;5032360;28;20475;-79
2023/09/08 01:09:40;;;;;;;3.90;3.70;;;30.70;48.40;;;;;;5032728;28;20871;-78
2023/09/08 01:12:09;;;;;;;4.03;3.83;;;30.60;48.50;;;;;;5032472;28;20543;-80
2023/09/08 01:14:37;;;;;;;4.30;4.10;;;30.70;48.50;;;;;;5032754;28;20453;-78
2023/09/08 01:17:05;;;;;;;4.07;3.87;;;30.70;48.60;;;;;;5035285;28;20506;-80
2023/09/08 01:19:33;;;;;;;4.33;3.87;;;30.60;49.10;;;;;;5033789;28;20530;-78
2023/09/08 01:22:16;;;;;;;4.50;4.20;;;30.60;48.60;;;;;;5033186;28;20431;-78
2023/09/08 01:25:18;;;;;;;4.63;4.33;;;30.50;48.70;;;;;;5033448;28;20679;-79
2023/09/08 01:27:48;;;;;;;4.93;4.60;;;30.50;48.60;;;;;;5033959;28;20452;-79
2023/09/08 01:30:16;;;;;;;4.80;4.40;;;30.50;48.80;;;;;;5033809;28;20475;-80
2023/09/08 01:32:45;;;;;;;3.73;3.53;;;30.50;48.70;;;;;;5034540;28;20436;-78
2023/09/08 01:35:13;;;;;;;4.20;4.00;;;30.50;48.70;;;;;;5035051;28;20539;-79
2023/09/08 01:37:42;;;;;;;4.70;4.30;;;30.50;48.80;;;;;;5035385;28;20442;-79
2023/09/08 01:40:12;;;;;;;4.47;4.23;;;30.50;48.70;;;;;;5034878;28;20872;-82
2023/09/08 01:42:40;;;;;;;4.80;4.50;;;30.40;48.80;;;;;;5035467;28;20470;-79
2023/09/08 01:45:09;;;;;;;15.03;13.20;;;30.40;48.70;;;;;;5034857;28;20501;-82
2023/09/08 01:47:37;;;;;;;13.33;11.93;;;30.40;48.80;;;;;;5035577;28;20439;-79
2023/09/08 01:50:06;;;;;;;15.80;14.10;;;30.40;48.90;;;;;;5034417;28;20534;-79
2023/09/08 01:52:34;;;;;;;14.57;13.00;;;30.40;48.80;;;;;;5034057;28;20503;-77
2023/09/08 01:55:02;;;;;;;15.77;14.07;;;30.30;48.80;;;;;;5033743;28;20436;-78
2023/09/08 01:57:31;;;;;;;14.63;13.13;;;30.30;48.90;;;;;;5033321;28;20438;-79
2023/09/08 01:59:59;;;;;;;17.07;15.30;;;30.30;48.90;;;;;;5032204;28;20979;-80
2023/09/08 02:02:27;;;;;;;16.97;15.17;;;30.20;48.80;;;;;;5032262;28;20414;-83
2023/09/08 02:04:55;;;;;;;18.40;16.03;;;30.20;48.90;;;;;;5033848;28;20481;-80
2023/09/08 02:07:23;;;;;;;16.43;14.73;;;30.10;48.90;;;;;;5034049;28;20412;-80
2023/09/08 02:09:52;;;;;;;14.73;13.27;;;30.20;49.10;;;;;;5032603;28;20475;-80
2023/09/08 02:12:20;;;;;;;16.63;14.67;;;30.10;49.00;;;;;;5031293;28;20433;-78
2023/09/08 02:14:49;;;;;;;16.20;14.17;;;30.10;49.00;;;;;;5037633;28;20446;-79
2023/09/08 02:17:17;;;;;;;15.87;14.20;;;30.10;49.10;;;;;;5046022;28;20444;-78
2023/09/08 02:19:45;;;;;;;16.00;14.30;;;30.10;49.00;;;;;;5048133;28;20511;-79
2023/09/08 02:22:13;;;;;;;15.03;13.50;;;30.10;49.10;;;;;;5034102;28;20439;-78
2023/09/08 02:24:41;;;;;;;17.37;15.50;;;30.10;49.00;;;;;;5033171;28;20443;-80
2023/09/08 02:27:09;;;;;;;14.77;13.30;;;30.00;49.20;;;;;;5032322;28;20442;-79
2023/09/08 02:29:37;;;;;;;14.63;13.13;;;30.00;49.20;;;;;;5031586;28;20538;-79
2023/09/08 02:32:07;;;;;;;15.63;13.03;;;30.00;49.20;;;;;;5033373;28;20534;-80
2023/09/08 02:34:37;;;;;;;14.10;12.70;;;30.00;49.30;;;;;;5033149;28;20422;-82
2023/09/08 02:37:05;;;;;;;14.07;12.57;;;30.00;49.20;;;;;;5034699;28;20426;-78
2023/09/08 02:39:34;;;;;;;14.47;12.97;;;29.90;49.20;;;;;;5031148;28;20459;-80
2023/09/08 02:42:02;;;;;;;17.60;13.40;;;29.90;49.10;;;;;;5031319;28;20458;-79
2023/09/08 02:44:32;;;;;;;14.00;12.60;;;29.90;49.30;;;;;;5031341;28;20477;-78
2023/09/08 02:47:00;;;;;;;13.27;11.70;;;29.90;49.30;;;;;;5031245;28;20844;-79
2023/09/08 02:49:30;;;;;;;13.90;12.50;;;29.80;49.40;;;;;;5031943;28;20482;-79
2023/09/08 02:51:58;;;;;;;12.83;11.53;;;29.80;49.30;;;;;;5031902;28;20451;-82
2023/09/08 02:54:26;;;;;;;13.17;11.93;;;29.80;49.40;;;;;;5030846;28;20509;-79
2023/09/08 02:56:54;;;;;;;14.33;12.83;;;29.80;49.30;;;;;;5030852;28;20439;-75
2023/09/08 02:59:22;;;;;;;13.97;12.33;;;29.80;49.30;;;;;;5031038;28;20469;-79
2023/09/08 03:01:50;;;;;;;12.63;11.43;;;29.70;49.40;;;;;;5031149;28;20434;-76
2023/09/08 03:04:19;;;;;;;13.33;12.03;;;29.70;49.40;;;;;;5031063;28;20509;-79
2023/09/08 03:06:48;;;;;;;12.40;11.10;;;29.70;49.40;;;;;;5030862;28;20422;-80
2023/09/08 03:09:17;;;;;;;12.63;11.40;;;29.70;49.40;;;;;;5030686;28;20465;-76
2023/09/08 03:11:45;;;;;;;11.73;10.53;;;29.60;49.40;;;;;;5030783;28;20533;-80
2023/09/08 03:14:14;;;;;;;12.07;10.93;;;29.60;49.50;;;;;;5030525;28;20469;-78
2023/09/08 03:16:42;;;;;;;11.97;10.67;;;29.60;49.50;;;;;;5030885;28;20502;-79
2023/09/08 03:19:10;;;;;;;11.83;10.73;;;29.60;49.60;;;;;;5030517;28;20452;-78
2023/09/08 03:21:38;;;;;;;11.57;10.47;;;29.60;49.70;;;;;;5031649;28;20522;-79
2023/09/08 03:24:08;;;;;;;12.47;11.20;;;29.60;49.50;;;;;;5032532;28;20499;-79
2023/09/08 03:26:36;;;;;;;11.97;10.80;;;29.50;49.50;;;;;;5033079;28;20414;-80
2023/09/08 03:29:05;;;;;;;10.97;9.90;;;29.60;49.70;;;;;;5032906;28;20469;-79
2023/09/08 03:31:33;;;;;;;11.00;10.00;;;29.50;49.60;;;;;;5032825;28;20450;-81
2023/09/08 03:34:01;;;;;;;11.47;10.27;;;29.50;49.50;;;;;;5032837;28;20418;-80
2023/09/08 03:36:30;;;;;;;11.13;10.10;;;29.50;49.70;;;;;;5032384;28;20419;-79
2023/09/08 03:38:58;;;;;;;10.57;9.47;;;29.50;49.70;;;;;;5033443;28;20501;-79
2023/09/08 03:41:28;;;;;;;10.90;9.80;;;29.40;49.70;;;;;;5032951;28;20453;-79
2023/09/08 03:43:56;;;;;;;11.43;10.27;;;29.40;49.70;;;;;;5032973;28;20470;-79
2023/09/08 03:46:25;;;;;;;10.97;9.87;;;29.40;49.70;;;;;;5035256;28;20422;-79
2023/09/08 03:48:58;;;;;;;11.53;10.43;;;29.40;49.80;;;;;;5036187;28;20474;-78
2023/09/08 03:51:26;;;;;;;10.57;9.57;;;29.30;49.70;;;;;;5036016;28;20503;-78
2023/09/08 03:53:54;;;;;;;10.70;9.40;;;29.30;49.90;;;;;;5035368;28;20538;-79
2023/09/08 03:56:23;;;;;;;9.70;8.80;;;29.30;49.80;;;;;;5035507;28;20530;-79
2023/09/08 03:58:53;;;;;;;10.63;9.53;;;29.30;49.80;;;;;;5035379;28;20497;-76
2023/09/08 04:01:21;;;;;;;10.87;9.77;;;29.30;49.80;;;;;;5035622;28;20482;-78
2023/09/08 04:03:49;;;;;;;10.33;9.33;;;29.20;49.90;;;;;;5033916;28;20494;-78
2023/09/08 04:06:17;;;;;;;9.80;8.90;;;29.20;49.90;;;;;;5033855;28;20450;-78
2023/09/08 04:08:45;;;;;;;9.90;9.00;;;29.20;49.90;;;;;;5034473;28;20486;-79
2023/09/08 04:11:13;;;;;;;9.37;8.53;;;29.20;49.90;;;;;;5034042;28;20441;-79
2023/09/08 04:13:41;;;;;;;9.50;8.60;;;29.20;49.90;;;;;;5033671;28;20530;-78
2023/09/08 04:16:10;;;;;;;10.57;9.47;;;29.20;49.90;;;;;;5034185;28;20409;-77
2023/09/08 04:18:38;;;;;;;9.70;8.80;;;29.20;50.10;;;;;;5034721;28;20440;-78
2023/09/08 04:21:07;;;;;;;10.03;9.13;;;29.20;50.00;;;;;;5034151;28;20599;-78
2023/09/08 04:23:35;;;;;;;9.17;8.37;;;29.20;50.00;;;;;;5035350;28;20451;-78
2023/09/08 04:26:04;;;;;;;9.13;8.23;;;29.10;50.00;;;;;;5034543;28;20490;-77
2023/09/08 04:28:32;;;;;;;8.97;8.07;;;29.10;50.00;;;;;;5034993;28;20497;-79
2023/09/08 04:31:00;;;;;;;9.70;8.60;;;29.10;50.00;;;;;;5035589;28;20485;-77
2023/09/08 04:33:30;;;;;;;8.17;7.43;;;29.10;50.10;;;;;;5033673;28;20471;-78
2023/09/08 04:35:58;;;;;;;9.27;8.47;;;29.00;50.10;;;;;;5033702;28;20418;-78
2023/09/08 04:38:26;;;;;;;9.07;8.20;;;29.00;50.00;;;;;;5034275;28;20478;-78
2023/09/08 04:40:54;;;;;;;8.57;7.77;;;29.00;50.20;;;;;;5033840;28;20476;-78
2023/09/08 04:43:22;;;;;;;9.20;8.30;;;28.90;50.20;;;;;;5033166;28;20444;-78
2023/09/08 04:45:50;;;;;;;8.70;7.90;;;28.90;50.20;;;;;;5033890;28;20523;-78
2023/09/08 04:48:18;;;;;;;9.90;7.60;;;28.90;50.10;;;;;;5033963;28;20415;-77
2023/09/08 04:50:47;;;;;;;9.50;8.60;;;28.90;50.30;;;;;;5033793;28;20448;-78
2023/09/08 04:53:15;;;;;;;8.43;7.73;;;28.90;50.20;;;;;;5033513;28;20494;-78
2023/09/08 04:55:43;;;;;;;8.87;8.03;;;28.90;50.20;;;;;;5032979;28;20496;-78
2023/09/08 04:58:12;;;;;;;9.30;7.40;;;28.90;50.10;;;;;;5033262;28;20438;-79
2023/09/08 05:00:40;;;;;;;8.93;8.13;;;28.90;50.20;;;;;;5032569;28;20430;-77
2023/09/08 05:03:09;;;;;;;7.73;7.10;;;28.80;50.20;;;;;;5033372;28;20425;-78
2023/09/08 05:05:37;;;;;;;8.17;7.47;;;28.80;50.30;;;;;;5034519;28;20574;-77
2023/09/08 05:08:07;;;;;;;7.73;7.03;;;28.80;50.20;;;;;;5034926;28;20427;-79
2023/09/08 05:10:35;;;;;;;7.93;7.23;;;28.80;50.30;;;;;;5035074;28;20539;-78
2023/09/08 05:13:03;;;;;;;8.13;7.37;;;28.80;50.30;;;;;;5034484;28;20477;-78
2023/09/08 05:15:42;;;;;;;7.90;7.20;;;28.80;50.30;;;;;;5033568;28;20472;-78
2023/09/08 05:18:10;;;;;;;7.93;7.20;;;28.80;50.40;;;;;;5033148;28;20414;-79
2023/09/08 05:20:38;;;;;;;7.70;7.00;;;28.80;50.40;;;;;;5034193;28;20598;-79
2023/09/08 05:23:08;;;;;;;7.87;7.20;;;28.70;50.30;;;;;;5040071;28;20445;-79
2023/09/08 05:25:36;;;;;;;7.63;7.00;;;28.70;50.40;;;;;;5046613;28;20425;-79
2023/09/08 05:28:04;;;;;;;8.10;7.13;;;28.70;50.40;;;;;;5050869;28;20436;-80
2023/09/08 05:30:32;;;;;;;7.77;7.17;;;28.70;50.50;;;;;;5038267;28;20461;-79
2023/09/08 05:33:01;;;;;;;7.90;7.10;;;28.70;50.40;;;;;;5035884;28;20532;-78
2023/09/08 05:35:29;;;;;;;8.10;7.30;;;28.70;50.50;;;;;;5034412;28;20435;-78
2023/09/08 05:37:57;;;;;;;7.20;6.60;;;28.70;50.40;;;;;;5035957;28;20472;-79
2023/09/08 05:40:26;;;;;;;7.33;6.60;;;28.60;50.40;;;;;;5036790;28;20447;-79
2023/09/08 05:42:56;;;;;;;7.70;7.00;;;28.60;50.60;;;;;;5036488;28;20475;-80
2023/09/08 05:45:25;;;;;;;8.13;7.43;;;28.70;50.50;;;;;;5035208;28;20500;-76
2023/09/08 05:47:53;;;;;;;7.70;7.00;;;28.60;50.50;;;;;;5033380;28;20483;-79
2023/09/08 05:50:21;;;;;;;7.03;6.43;;;28.60;50.50;;;;;;5033627;28;20474;-79
2023/09/08 05:52:49;;;;;;;7.87;7.20;;;28.60;50.60;;;;;;5034595;28;20498;-78
2023/09/08 05:55:17;;;;;;;8.90;7.23;;;28.60;50.60;;;;;;5035935;28;20418;-80
2023/09/08 05:57:47;;;;;;;6.67;6.17;;;28.60;50.50;;;;;;5032535;28;20509;-79
2023/09/08 06:00:15;;;;;;;6.87;6.27;;;28.60;50.40;;;;;;5032737;28;20542;-79
2023/09/08 06:02:43;;;;;;;7.33;6.63;;;28.60;50.40;;;;;;5032011;28;20409;-78
2023/09/08 06:05:11;;;;;;;6.70;6.13;;;28.60;50.50;;;;;;5031688;28;20444;-78
2023/09/08 06:07:40;;;;;;;6.30;5.80;;;28.70;50.50;;;;;;5032127;28;20436;-77
2023/09/08 06:10:16;;;;;;;7.23;6.63;;;28.70;50.10;;;;;;5033836;28;20433;-78
2023/09/08 06:12:45;;;;;;;7.00;6.33;;;28.70;50.50;;;;;;5034181;28;20889;-79
2023/09/08 06:15:14;;;;;;;6.80;6.20;;;28.70;50.50;;;;;;5034090;28;20510;-78
2023/09/08 06:17:43;;;;;;;6.40;5.90;;;28.70;50.30;;;;;;5033086;28;20409;-76
2023/09/08 06:20:12;;;;;;;8.43;6.33;;;28.70;50.40;;;;;;5031569;28;20467;-78
2023/09/08 06:22:40;;;;;;;6.90;6.23;;;28.70;50.30;;;;;;5031285;28;20445;-77
2023/09/08 06:25:08;;;;;;;7.07;6.47;;;28.80;50.40;;;;;;5031697;28;20440;-77
2023/09/08 06:27:36;;;;;;;7.03;6.43;;;28.80;50.00;;;;;;5031521;28;20418;-77
2023/09/08 06:30:05;;;;;;;7.03;6.33;;;28.80;50.30;;;;;;5030897;28;20499;-78
2023/09/08 06:32:35;;;;;;;5.97;5.57;;;28.80;50.40;;;;;;5030517;28;20537;-78
2023/09/08 06:35:04;;;;;;;9.50;6.73;;;28.80;50.80;;;;;;5030836;28;20447;-77
2023/09/08 06:37:36;;;;;;;6.77;6.23;;;28.90;50.00;;;;;;5030669;28;20439;-78
2023/09/08 06:40:05;;;;;;;6.33;5.83;;;28.90;50.00;;;;;;5030773;28;20515;-77
2023/09/08 06:42:32;;;;;;;7.27;6.60;;;28.90;50.20;;;;;;5030477;28;20505;-77
2023/09/08 06:45:01;;;;;;;7.00;6.40;;;28.80;50.20;;;;;;5030765;28;20414;-77
2023/09/08 06:47:29;;;;;;;6.60;6.10;;;28.90;50.10;;;;;;5030549;28;20542;-79
2023/09/08 06:49:58;;;;;;;7.00;6.30;;;28.90;50.10;;;;;;5030621;28;20429;-79
2023/09/08 06:52:26;;;;;;;6.70;6.10;;;28.90;50.20;;;;;;5031465;28;20481;-80
2023/09/08 06:54:54;;;;;;;6.70;6.10;;;28.90;50.40;;;;;;5031220;28;20446;-79
2023/09/08 06:57:22;;;;;;;7.13;6.30;;;28.90;49.80;;;;;;5031097;28;20522;-79
2023/09/08 06:59:50;;;;;;;6.60;6.10;;;28.90;50.20;;;;;;5031180;28;20437;-78
2023/09/08 07:02:18;;;;;;;6.67;6.17;;;28.90;50.20;;;;;;5031000;28;20481;-79
2023/09/08 07:04:46;;;;;;;6.80;6.30;;;28.90;50.20;;;;;;5030681;28;20414;-78
2023/09/08 07:07:15;;;;;;;6.93;6.30;;;28.90;50.10;;;;;;5030953;28;20463;-79
2023/09/08 07:09:44;;;;;;;6.50;6.00;;;28.90;49.90;;;;;;5031333;28;21003;-78
2023/09/08 07:12:11;;;;;;;6.50;6.00;;;29.00;50.00;;;;;;5033156;28;20457;-79
2023/09/08 07:14:39;;;;;;;6.13;5.63;;;29.00;49.90;;;;;;5033633;28;20509;-79
2023/09/08 07:17:08;;;;;;;6.37;5.77;;;29.00;50.20;;;;;;5033445;28;20448;-79
2023/09/08 07:19:36;;;;;;;6.47;5.97;;;29.00;49.80;;;;;;5035529;28;20886;-79
2023/09/08 07:22:05;;;;;;;6.40;5.90;;;28.90;49.90;;;;;;5037359;28;20435;-79
2023/09/08 07:24:34;;;;;;;6.30;5.73;;;28.90;50.00;;;;;;5037447;28;20887;-79
2023/09/08 07:27:03;;;;;;;6.27;5.70;;;29.00;49.90;;;;;;5036864;28;20447;-80
2023/09/08 07:29:31;;;;;;;6.23;5.80;;;29.00;50.10;;;;;;5036715;28;20502;-78
2023/09/08 07:31:59;;;;;;;6.17;5.70;;;29.00;50.20;;;;;;5036247;28;20497;-79
2023/09/08 07:34:27;;;;;;;6.10;5.60;;;28.90;50.10;;;;;;5036500;28;20446;-79
2023/09/08 07:36:55;;;;;;;5.50;5.13;;;29.00;50.10;;;;;;5037182;28;20462;-79
2023/09/08 07:39:22;;;;;;;6.20;5.70;;;29.00;50.20;;;;;;5036093;28;20430;-78
2023/09/08 07:41:53;;;;;;;5.70;5.20;;;29.10;50.70;;;;;;5034322;28;20462;-79
2023/09/08 07:44:21;;;;;;;6.10;5.60;;;29.10;50.10;;;;;;5035008;28;20466;-78
2023/09/08 07:46:51;;;;;;;6.20;5.60;;;29.10;50.00;;;;;;5034132;28;20936;-78
2023/09/08 07:49:20;;;;;;;6.23;5.73;;;29.20;50.00;;;;;;5033990;28;20462;-78
2023/09/08 07:51:48;;;;;;;6.30;5.80;;;29.10;49.90;;;;;;5035693;28;20446;-79
2023/09/08 07:54:16;;;;;;;5.90;5.30;;;29.20;49.90;;;;;;5036667;28;20470;-77
2023/09/08 07:56:47;;;;;;;6.23;5.73;;;29.30;49.80;;;;;;5036706;28;20435;-79
2023/09/08 07:59:16;;;;;;;5.93;5.53;;;29.40;49.80;;;;;;5035780;28;20469;-79
2023/09/08 08:01:45;;;;;;;5.40;5.00;;;29.50;49.70;;;;;;5034604;28;20413;-78
2023/09/08 08:04:12;;;;;;;5.60;5.20;;;29.60;49.50;;;;;;5036434;28;20446;-79
2023/09/08 08:06:40;;;;;;;5.67;5.17;;;29.80;49.40;;;;;;5035976;28;20414;-79
2023/09/08 08:09:08;;;;;;;5.73;5.23;;;29.90;49.10;;;;;;5035709;28;20455;-79
2023/09/08 08:11:36;;;;;;;5.17;4.73;;;30.10;49.00;;;;;;5034682;28;20439;-79
2023/09/08 08:14:04;;;;;;;5.10;4.70;;;30.30;48.80;;;;;;5035761;28;20471;-79
2023/09/08 08:16:34;;;;;;;5.50;5.10;;;30.40;48.60;;;;;;5036031;28;20467;-79
2023/09/08 08:19:03;;;;;;;5.20;4.90;;;30.60;48.60;;;;;;5034149;28;20452;-77
2023/09/08 08:21:31;;;;;;;5.20;4.90;;;30.80;48.20;;;;;;5035328;28;20462;-79
2023/09/08 08:23:59;;;;;;;5.17;4.77;;;31.00;48.10;;;;;;5034595;28;20429;-78
2023/09/08 08:26:29;;;;;;;5.90;5.50;;;31.20;48.00;;;;;;5034072;28;20466;-78
2023/09/08 08:28:58;;;;;;;5.30;4.90;;;31.40;47.60;;;;;;5033889;28;20495;-78
2023/09/08 08:31:26;;;;;;;5.97;5.47;;;31.60;47.50;;;;;;5033156;28;20463;-78
2023/09/08 08:33:56;;;;;;;5.03;4.73;;;31.70;47.40;;;;;;5034299;28;20475;-78
2023/09/08 08:36:24;;;;;;;5.10;4.80;;;31.90;47.00;;;;;;5034134;28;20440;-77
2023/09/08 08:38:52;;;;;;;5.23;4.90;;;32.10;46.90;;;;;;5033643;28;20459;-79
2023/09/08 08:41:20;;;;;;;4.80;4.50;;;32.40;46.70;;;;;;5033979;28;20509;-79
2023/09/08 08:43:48;;;;;;;4.67;4.37;;;32.60;46.70;;;;;;5035088;28;20539;-79
2023/09/08 08:46:16;;;;;;;4.23;4.03;;;32.80;46.40;;;;;;5034555;28;20414;-78
2023/09/08 08:48:44;;;;;;;5.17;4.87;;;32.90;46.20;;;;;;5034461;28;20414;-78
2023/09/08 08:51:13;;;;;;;5.17;4.87;;;33.10;46.00;;;;;;5033885;28;20838;-77
2023/09/08 08:53:41;;;;;;;4.90;4.60;;;33.20;45.80;;;;;;5033847;28;20537;-78
2023/09/08 08:56:10;;;;;;;5.03;4.77;;;33.50;45.60;;;;;;5035126;28;20483;-78
2023/09/08 08:58:38;;;;;;;4.40;4.20;;;33.60;45.40;;;;;;5034563;28;20443;-78
2023/09/08 09:01:07;;;;;;;5.50;5.10;;;33.90;45.20;;;;;;5034866;28;20436;-79
2023/09/08 09:03:37;;;;;;;4.83;4.50;;;34.00;45.10;;;;;;5035426;28;20490;-79
2023/09/08 09:06:05;;;;;;;4.10;3.90;;;34.10;44.90;;;;;;5034779;28;20498;-79
2023/09/08 09:08:35;;;;;;;4.43;4.23;;;34.30;44.70;;;;;;5035043;28;20436;-78
2023/09/08 09:11:03;;;;;;;4.47;4.17;;;34.50;44.60;;;;;;5034378;28;20458;-79
2023/09/08 09:13:31;;;;;;;4.50;4.30;;;34.70;44.40;;;;;;5034633;28;20471;-78
2023/09/08 09:15:59;;;;;;;3.73;3.63;;;34.80;44.20;;;;;;5034406;28;20515;-78
2023/09/08 09:18:30;;;;;;;4.40;4.20;;;35.00;44.00;;;;;;5034539;28;20463;-77
2023/09/08 09:21:00;;;;;;;4.20;3.97;;;35.20;43.90;;;;;;5034720;28;20443;-77
2023/09/08 09:23:29;;;;;;;4.00;3.80;;;35.30;43.70;;;;;;5035244;28;20441;-79
2023/09/08 09:25:59;;;;;;;4.30;4.10;;;35.50;43.50;;;;;;5034382;28;20812;-79
2023/09/08 09:28:29;;;;;;;3.60;3.50;;;35.70;43.40;;;;;;5034913;28;20952;-79
2023/09/08 09:30:59;;;;;;;3.90;3.73;;;35.90;43.10;;;;;;5035750;28;20448;-79
2023/09/08 09:33:26;;;;;;;3.77;3.67;;;36.10;43.00;;;;;;5034731;28;20467;-79
2023/09/08 09:35:55;;;;;;;3.90;3.80;;;36.20;42.70;;;;;;5034627;28;20482;-79
2023/09/08 09:38:26;;;;;;;3.70;3.60;;;36.50;42.60;;;;;;5034982;28;20471;-79
2023/09/08 09:40:54;;;;;;;4.80;4.40;;;36.60;42.40;;;;;;5035513;28;21004;-83
2023/09/08 09:43:23;;;;;;;3.70;3.50;;;36.80;42.30;;;;;;5033695;28;20543;-78
2023/09/08 09:45:52;;;;;;;3.80;3.70;;;36.90;42.00;;;;;;5034375;28;20435;-81
2023/09/08 09:48:20;;;;;;;4.17;3.97;;;37.00;41.80;;;;;;5034097;28;20447;-80
2023/09/08 09:50:48;;;;;;;3.93;3.77;;;37.20;41.70;;;;;;5033540;28;20460;-80
2023/09/08 09:53:17;;;;;;;4.47;4.27;;;37.40;41.60;;;;;;5034742;28;20439;-79
2023/09/08 09:55:46;;;;;;;3.90;3.70;;;37.50;41.40;;;;;;5034069;28;20482;-82
2023/09/08 09:58:14;;;;;;;3.40;3.30;;;37.70;41.30;;;;;;5034702;28;21011;-80
2023/09/08 10:00:47;;;;;;;3.33;3.23;;;37.90;41.20;;;;;;5033652;28;20490;-79
2023/09/08 10:03:16;;;;;;;3.57;3.47;;;38.00;41.60;;;;;;5034155;28;20459;-79
2023/09/08 10:05:46;;;;;;;3.87;3.77;;;38.20;40.80;;;;;;5034186;28;20438;-80
2023/09/08 10:08:14;;;;;;;3.30;3.20;;;38.30;40.60;;;;;;5033500;28;20794;-79
2023/09/08 10:10:45;;;;;;;4.10;3.90;;;38.50;40.40;;;;;;5034076;28;20486;-79
2023/09/08 10:13:13;;;;;;;3.80;3.70;;;38.70;40.30;;;;;;5036568;28;20450;-80
2023/09/08 10:15:42;;;;;;;3.77;3.60;;;38.80;40.80;;;;;;5038069;28;20491;-80
2023/09/08 10:18:11;;;;;;;3.80;3.60;;;39.00;40.00;;;;;;5035114;28;20446;-79
2023/09/08 10:20:39;;;;;;;3.60;3.50;;;39.10;39.90;;;;;;5032368;28;20977;-79
2023/09/08 10:23:09;;;;;;;3.00;2.90;;;39.30;39.80;;;;;;5034701;28;20535;-79
2023/09/08 10:25:41;;;;;;;2.93;2.83;;;39.40;39.50;;;;;;5034769;28;20478;-80
2023/09/08 10:28:08;;;;;;;4.93;3.63;;;39.60;39.40;;;;;;5037745;28;20522;-79
2023/09/08 10:30:37;;;;;;;3.57;3.43;;;39.70;39.30;;;;;;5035794;28;20562;-81
2023/09/08 10:33:06;;;;;;;3.43;3.33;;;39.90;39.20;;;;;;5032878;28;20446;-79
2023/09/08 10:35:35;;;;;;;3.50;3.30;;;40.10;39.10;;;;;;5032627;28;20471;-79
2023/09/08 10:38:22;;;;;;;3.67;3.57;;;40.20;38.90;;;;;;5032981;28;20471;-81
2023/09/08 10:40:50;;;;;;;3.13;3.03;;;40.30;38.80;;;;;;5032243;28;20538;-78
2023/09/08 10:43:19;;;;;;;3.30;3.20;;;40.50;38.60;;;;;;5032885;28;20446;-78
2023/09/08 10:45:47;;;;;;;3.20;3.10;;;40.60;38.50;;;;;;5032784;28;20446;-79
2023/09/08 10:48:15;;;;;;;3.50;3.33;;;40.80;38.40;;;;;;5033529;28;20489;-77
2023/09/08 10:50:45;;;;;;;3.60;3.50;;;40.90;38.20;;;;;;5033083;28;20466;-79
2023/09/08 10:53:16;;;;;;;3.50;3.40;;;41.00;38.10;;;;;;5033725;28;20442;-78
2023/09/08 10:55:48;;;;;;;3.23;3.13;;;41.20;38.00;;;;;;5037453;28;20498;-79
2023/09/08 10:58:32;;;;;;;3.20;3.20;;;41.30;37.90;;;;;;5037568;28;20441;-79
2023/09/08 11:01:01;;;;;;;3.40;3.30;;;41.50;37.70;;;;;;5037473;28;20442;-80
2023/09/08 11:03:43;;;;;;;3.47;3.37;;;41.60;37.50;;;;;;5036876;28;20873;-80
2023/09/08 11:06:13;;;;;;;3.20;3.10;;;41.70;37.40;;;;;;5037353;28;20786;-80
2023/09/08 11:08:42;;;;;;;3.27;3.17;;;41.90;37.30;;;;;;5037311;28;20446;-79
2023/09/08 11:11:11;;;;;;;2.90;2.90;;;42.00;37.20;;;;;;5037655;28;20446;-79
2023/09/08 11:13:40;;;;;;;2.73;2.73;;;42.10;37.10;;;;;;5037081;28;20489;-81
2023/09/08 11:16:08;;;;;;;3.50;3.40;;;42.30;37.00;;;;;;5036837;28;20517;-78
2023/09/08 11:18:36;;;;;;;3.20;3.10;;;42.30;36.80;;;;;;5037744;28;20492;-78
2023/09/08 11:21:09;;;;;;;2.77;2.67;;;42.40;36.70;;;;;;5037099;28;20438;-79
2023/09/08 11:23:39;;;;;;;2.80;2.70;;;42.60;36.70;;;;;;5036501;28;20916;-80
2023/09/08 11:26:08;;;;;;;2.80;2.80;;;42.70;36.50;;;;;;5036899;28;20442;-79
2023/09/08 11:28:36;;;;;;;2.70;2.60;;;42.80;36.30;;;;;;5036656;28;20525;-80
2023/09/08 11:31:05;;;;;;;2.93;2.83;;;42.90;36.30;;;;;;5036593;28;20466;-78
2023/09/08 11:33:34;;;;;;;3.00;2.90;;;43.00;36.10;;;;;;5036847;28;20442;-79
2023/09/08 11:36:02;;;;;;;2.53;2.53;;;43.10;36.00;;;;;;5036386;28;20561;-79
2023/09/08 11:38:31;;;;;;;2.57;2.57;;;43.20;36.00;;;;;;5035900;28;20508;-79
2023/09/08 11:41:01;;;;;;;2.70;2.60;;;43.30;35.80;;;;;;5037045;28;20496;-79
2023/09/08 11:43:32;;;;;;;2.83;2.83;;;43.40;35.60;;;;;;5034426;28;20474;-79
2023/09/08 11:46:00;;;;;;;2.93;2.80;;;43.50;35.60;;;;;;5034266;28;20489;-79
2023/09/08 11:48:28;;;;;;;2.77;2.67;;;43.60;35.60;;;;;;5034474;28;21010;-80
2023/09/08 11:50:56;;;;;;;2.40;2.40;;;43.70;35.40;;;;;;5037026;28;20521;-79
2023/09/08 11:53:24;;;;;;;2.60;2.60;;;43.80;35.20;;;;;;5036678;28;20439;-79
2023/09/08 11:55:52;;;;;;;2.80;2.70;;;43.90;35.20;;;;;;5036106;28;20505;-79
2023/09/08 11:58:23;;;;;;;2.50;2.50;;;44.00;35.10;;;;;;5036372;28;20505;-78
2023/09/08 12:00:51;;;;;;;2.33;2.33;;;44.00;34.90;;;;;;5035837;28;20473;-78
2023/09/08 12:03:20;;;;;;;2.50;2.30;;;44.10;34.80;;;;;;5033949;28;20518;-78
2023/09/08 12:05:52;;;;;;;2.40;2.40;;;44.20;34.70;;;;;;5033638;28;20446;-79
2023/09/08 12:08:20;;;;;;;2.70;2.60;;;44.30;34.80;;;;;;5035326;28;20542;-80
2023/09/08 12:10:48;;;;;;;4.80;2.70;;;44.40;34.60;;;;;;5032645;28;20577;-79
2023/09/08 12:13:23;;;;;;;2.17;2.17;;;44.40;34.50;;;;;;5033812;28;20470;-80
2023/09/08 12:15:51;;;;;;;2.70;2.60;;;44.50;34.50;;;;;;5033916;28;20520;-79
2023/09/08 12:18:19;;;;;;;2.70;2.50;;;44.60;34.30;;;;;;5033808;28;20944;-78
2023/09/08 12:20:47;;;;;;;2.47;2.47;;;44.50;33.90;;;;;;5033532;28;20465;-79
2023/09/08 12:23:19;;;;;;;2.47;2.40;;;44.60;33.80;;;;;;5033617;28;20438;-79
2023/09/08 12:25:47;;;;;;;2.50;2.40;;;44.60;34.00;;;;;;5033452;28;20431;-79
2023/09/08 12:28:18;;;;;;;2.53;2.53;;;44.70;34.10;;;;;;5033017;28;20439;-79
2023/09/08 12:30:47;;;;;;;2.33;2.23;;;44.80;33.90;;;;;;5033197;28;21043;-79
2023/09/08 12:33:15;;;;;;;2.30;2.30;;;44.80;34.00;;;;;;5033073;28;20804;-78
2023/09/08 12:35:44;;;;;;;2.40;2.30;;;44.80;33.90;;;;;;5033030;28;20993;-79
2023/09/08 12:38:12;;;;;;;2.70;2.60;;;44.90;33.70;;;;;;5035625;28;20474;-80
2023/09/08 12:40:40;;;;;;;2.17;2.17;;;44.90;33.70;;;;;;5035209;28;20461;-80
2023/09/08 12:43:08;;;;;;;2.23;2.17;;;44.90;33.60;;;;;;5035048;28;21005;-80
2023/09/08 12:45:56;;;;;;;2.23;2.23;;;44.90;33.30;;;;;;5035025;28;20450;-81
2023/09/08 12:48:24;;;;;;;2.47;2.40;;;44.90;33.30;;;;;;5034859;28;20434;-80
2023/09/08 12:50:52;;;;;;;2.40;2.30;;;45.00;33.50;;;;;;5035561;28;20459;-80